sensor_id;sensor_type;location;lat;lon;timestamp;P1;durP1;ratioP1;P2;durP2;ratioP2
21894;SDS011;11112;51.270;7.224;2022-12-07T00:01:04;44.90;;;31.25;;
21894;SDS011;11112;51.270;7.224;2022-12-07T00:03:34;45.08;;;31.02;;
21894;SDS011;11112;51.270;7.224;2022-12-07T00:06:03;49.05;;;31.48;;
21894;SDS011;11112;51.270;7.224;2022-12-07T00:08:32;43.40;;;30.55;;
21894;SDS011;11112;51.270;7.224;2022-12-07T00:11:01;49.72;;;31.55;;
21894;SDS011;11112;51.270;7.224;2022-12-07T00:13:29;45.85;;;32.05;;
21894;SDS011;11112;51.270;7.224;2022-12-07T00:16:01;46.60;;;32.42;;
21894;SDS011;11112;51.270;7.224;2022-12-07T00:18:31;48.65;;;33.33;;
21894;SDS011;11112;51.270;7.224;2022-12-07T00:20:59;45.15;;;31.23;;
21894;SDS011;11112;51.270;7.224;2022-12-07T00:23:30;48.88;;;33.60;;
21894;SDS011;11112;51.270;7.224;2022-12-07T00:26:02;44.63;;;32.75;;
21894;SDS011;11112;51.270;7.224;2022-12-07T00:28:31;46.42;;;32.13;;
21894;SDS011;11112;51.270;7.224;2022-12-07T00:31:01;44.03;;;32.08;;
21894;SDS011;11112;51.270;7.224;2022-12-07T00:33:31;48.05;;;32.28;;
21894;SDS011;11112;51.270;7.224;2022-12-07T00:35:59;41.72;;;30.30;;
21894;SDS011;11112;51.270;7.224;2022-12-07T00:38:30;43.78;;;32.03;;
21894;SDS011;11112;51.270;7.224;2022-12-07T00:40:59;44.45;;;32.00;;
21894;SDS011;11112;51.270;7.224;2022-12-07T00:43:29;44.08;;;31.38;;
21894;SDS011;11112;51.270;7.224;2022-12-07T00:45:57;43.97;;;31.40;;
21894;SDS011;11112;51.270;7.224;2022-12-07T00:48:27;44.63;;;32.00;;
21894;SDS011;11112;51.270;7.224;2022-12-07T00:50:55;45.78;;;30.77;;
21894;SDS011;11112;51.270;7.224;2022-12-07T00:53:22;46.30;;;31.55;;
21894;SDS011;11112;51.270;7.224;2022-12-07T00:55:51;45.80;;;31.73;;
21894;SDS011;11112;51.270;7.224;2022-12-07T00:58:20;51.83;;;33.45;;
21894;SDS011;11112;51.270;7.224;2022-12-07T01:00:48;46.03;;;32.53;;
21894;SDS011;11112;51.270;7.224;2022-12-07T01:03:16;52.92;;;34.40;;
21894;SDS011;11112;51.270;7.224;2022-12-07T01:05:50;49.95;;;33.88;;
21894;SDS011;11112;51.270;7.224;2022-12-07T01:08:19;45.08;;;32.80;;
21894;SDS011;11112;51.270;7.224;2022-12-07T01:10:49;48.58;;;33.25;;
21894;SDS011;11112;51.270;7.224;2022-12-07T01:13:24;46.70;;;32.67;;
21894;SDS011;11112;51.270;7.224;2022-12-07T01:15:55;46.85;;;32.40;;
21894;SDS011;11112;51.270;7.224;2022-12-07T01:18:24;45.33;;;31.75;;
21894;SDS011;11112;51.270;7.224;2022-12-07T01:21:00;44.40;;;31.67;;
21894;SDS011;11112;51.270;7.224;2022-12-07T01:23:30;42.88;;;30.58;;
21894;SDS011;11112;51.270;7.224;2022-12-07T01:25:59;47.55;;;32.17;;
21894;SDS011;11112;51.270;7.224;2022-12-07T01:28:28;44.50;;;31.17;;
21894;SDS011;11112;51.270;7.224;2022-12-07T01:30:57;48.25;;;31.48;;
21894;SDS011;11112;51.270;7.224;2022-12-07T01:33:26;46.13;;;32.08;;
21894;SDS011;11112;51.270;7.224;2022-12-07T01:36:01;44.22;;;32.83;;
21894;SDS011;11112;51.270;7.224;2022-12-07T01:38:30;47.08;;;33.47;;
21894;SDS011;11112;51.270;7.224;2022-12-07T01:40:57;48.67;;;32.75;;
21894;SDS011;11112;51.270;7.224;2022-12-07T01:43:27;46.15;;;32.72;;
21894;SDS011;11112;51.270;7.224;2022-12-07T01:45:56;47.25;;;32.55;;
21894;SDS011;11112;51.270;7.224;2022-12-07T01:48:26;50.30;;;34.67;;
21894;SDS011;11112;51.270;7.224;2022-12-07T01:51:00;50.92;;;34.10;;
21894;SDS011;11112;51.270;7.224;2022-12-07T01:53:31;51.25;;;33.67;;
21894;SDS011;11112;51.270;7.224;2022-12-07T01:56:02;48.25;;;34.00;;
21894;SDS011;11112;51.270;7.224;2022-12-07T01:58:30;48.78;;;32.83;;
21894;SDS011;11112;51.270;7.224;2022-12-07T02:00:57;48.53;;;33.47;;
21894;SDS011;11112;51.270;7.224;2022-12-07T02:03:25;49.83;;;32.63;;
21894;SDS011;11112;51.270;7.224;2022-12-07T02:05:59;53.08;;;35.10;;
21894;SDS011;11112;51.270;7.224;2022-12-07T02:08:28;52.50;;;33.83;;
21894;SDS011;11112;51.270;7.224;2022-12-07T02:10:56;51.50;;;34.38;;
21894;SDS011;11112;51.270;7.224;2022-12-07T02:13:24;48.83;;;33.67;;
21894;SDS011;11112;51.270;7.224;2022-12-07T02:16:05;54.20;;;34.78;;
21894;SDS011;11112;51.270;7.224;2022-12-07T02:18:48;51.78;;;34.85;;
21894;SDS011;11112;51.270;7.224;2022-12-07T02:21:34;48.65;;;33.22;;
21894;SDS011;11112;51.270;7.224;2022-12-07T02:24:18;51.30;;;34.50;;
21894;SDS011;11112;51.270;7.224;2022-12-07T02:27:07;52.20;;;34.72;;
21894;SDS011;11112;51.270;7.224;2022-12-07T02:29:57;54.50;;;35.88;;
21894;SDS011;11112;51.270;7.224;2022-12-07T02:32:27;52.60;;;36.03;;
21894;SDS011;11112;51.270;7.224;2022-12-07T02:35:08;51.28;;;34.50;;
21894;SDS011;11112;51.270;7.224;2022-12-07T02:37:41;52.08;;;34.80;;
21894;SDS011;11112;51.270;7.224;2022-12-07T02:40:16;49.50;;;33.67;;
21894;SDS011;11112;51.270;7.224;2022-12-07T02:42:49;50.95;;;35.42;;
21894;SDS011;11112;51.270;7.224;2022-12-07T02:45:25;50.78;;;33.92;;
21894;SDS011;11112;51.270;7.224;2022-12-07T02:47:55;51.97;;;36.03;;
21894;SDS011;11112;51.270;7.224;2022-12-07T02:50:25;52.88;;;34.95;;
21894;SDS011;11112;51.270;7.224;2022-12-07T02:52:53;53.22;;;35.60;;
21894;SDS011;11112;51.270;7.224;2022-12-07T02:55:23;56.13;;;37.17;;
21894;SDS011;11112;51.270;7.224;2022-12-07T02:58:06;54.90;;;36.40;;
21894;SDS011;11112;51.270;7.224;2022-12-07T03:00:52;53.15;;;36.53;;
21894;SDS011;11112;51.270;7.224;2022-12-07T03:03:31;57.28;;;37.72;;
21894;SDS011;11112;51.270;7.224;2022-12-07T03:06:02;54.28;;;37.95;;
21894;SDS011;11112;51.270;7.224;2022-12-07T03:08:42;57.58;;;37.60;;
21894;SDS011;11112;51.270;7.224;2022-12-07T03:11:19;54.92;;;37.35;;
21894;SDS011;11112;51.270;7.224;2022-12-07T03:13:55;55.40;;;37.15;;
21894;SDS011;11112;51.270;7.224;2022-12-07T03:16:33;49.60;;;34.38;;
21894;SDS011;11112;51.270;7.224;2022-12-07T03:19:06;50.67;;;34.92;;
21894;SDS011;11112;51.270;7.224;2022-12-07T03:21:37;52.70;;;35.90;;
21894;SDS011;11112;51.270;7.224;2022-12-07T03:24:08;49.88;;;34.88;;
21894;SDS011;11112;51.270;7.224;2022-12-07T03:26:40;48.97;;;33.78;;
21894;SDS011;11112;51.270;7.224;2022-12-07T03:29:12;49.42;;;34.35;;
21894;SDS011;11112;51.270;7.224;2022-12-07T03:34:16;48.80;;;33.42;;
21894;SDS011;11112;51.270;7.224;2022-12-07T03:36:49;44.55;;;31.17;;
21894;SDS011;11112;51.270;7.224;2022-12-07T03:39:24;44.88;;;31.95;;
21894;SDS011;11112;51.270;7.224;2022-12-07T03:41:57;42.85;;;30.55;;
21894;SDS011;11112;51.270;7.224;2022-12-07T03:44:30;46.97;;;32.50;;
21894;SDS011;11112;51.270;7.224;2022-12-07T03:47:01;47.03;;;32.22;;
21894;SDS011;11112;51.270;7.224;2022-12-07T03:49:33;43.60;;;32.03;;
21894;SDS011;11112;51.270;7.224;2022-12-07T03:52:08;45.58;;;32.05;;
21894;SDS011;11112;51.270;7.224;2022-12-07T03:54:45;46.53;;;32.33;;
21894;SDS011;11112;51.270;7.224;2022-12-07T03:57:19;47.80;;;33.28;;
21894;SDS011;11112;51.270;7.224;2022-12-07T03:59:49;45.40;;;32.53;;
21894;SDS011;11112;51.270;7.224;2022-12-07T04:02:19;43.65;;;31.38;;
21894;SDS011;11112;51.270;7.224;2022-12-07T04:04:47;44.53;;;31.55;;
21894;SDS011;11112;51.270;7.224;2022-12-07T04:07:14;46.63;;;32.55;;
21894;SDS011;11112;51.270;7.224;2022-12-07T04:09:41;46.85;;;32.20;;
21894;SDS011;11112;51.270;7.224;2022-12-07T04:12:08;44.22;;;30.95;;
21894;SDS011;11112;51.270;7.224;2022-12-07T04:14:35;43.83;;;30.20;;
21894;SDS011;11112;51.270;7.224;2022-12-07T04:17:03;41.03;;;28.20;;
21894;SDS011;11112;51.270;7.224;2022-12-07T04:19:33;42.17;;;29.02;;
21894;SDS011;11112;51.270;7.224;2022-12-07T04:22:01;45.38;;;29.08;;
21894;SDS011;11112;51.270;7.224;2022-12-07T04:24:31;38.58;;;27.60;;
21894;SDS011;11112;51.270;7.224;2022-12-07T04:26:59;43.10;;;28.02;;
21894;SDS011;11112;51.270;7.224;2022-12-07T04:29:26;34.85;;;25.92;;
21894;SDS011;11112;51.270;7.224;2022-12-07T04:31:54;37.63;;;25.63;;
21894;SDS011;11112;51.270;7.224;2022-12-07T04:34:21;32.10;;;23.95;;
21894;SDS011;11112;51.270;7.224;2022-12-07T04:36:50;36.10;;;24.98;;
21894;SDS011;11112;51.270;7.224;2022-12-07T04:39:18;37.50;;;24.17;;
21894;SDS011;11112;51.270;7.224;2022-12-07T04:41:48;32.58;;;24.02;;
21894;SDS011;11112;51.270;7.224;2022-12-07T04:44:16;32.33;;;22.73;;
21894;SDS011;11112;51.270;7.224;2022-12-07T04:46:44;29.38;;;22.00;;
21894;SDS011;11112;51.270;7.224;2022-12-07T04:49:12;32.35;;;23.35;;
21894;SDS011;11112;51.270;7.224;2022-12-07T04:51:40;35.60;;;24.27;;
21894;SDS011;11112;51.270;7.224;2022-12-07T04:54:10;35.42;;;24.73;;
21894;SDS011;11112;51.270;7.224;2022-12-07T04:56:37;31.42;;;21.98;;
21894;SDS011;11112;51.270;7.224;2022-12-07T04:59:05;35.75;;;22.77;;
21894;SDS011;11112;51.270;7.224;2022-12-07T05:01:33;29.20;;;21.45;;
21894;SDS011;11112;51.270;7.224;2022-12-07T05:04:00;31.45;;;21.05;;
21894;SDS011;11112;51.270;7.224;2022-12-07T05:06:28;33.00;;;21.20;;
21894;SDS011;11112;51.270;7.224;2022-12-07T05:08:55;31.08;;;20.77;;
21894;SDS011;11112;51.270;7.224;2022-12-07T05:11:24;28.17;;;21.38;;
21894;SDS011;11112;51.270;7.224;2022-12-07T05:16:37;30.75;;;21.15;;
21894;SDS011;11112;51.270;7.224;2022-12-07T05:19:06;29.77;;;21.73;;
21894;SDS011;11112;51.270;7.224;2022-12-07T05:21:34;27.63;;;19.63;;
21894;SDS011;11112;51.270;7.224;2022-12-07T05:24:02;27.77;;;19.35;;
21894;SDS011;11112;51.270;7.224;2022-12-07T05:26:31;26.73;;;18.90;;
21894;SDS011;11112;51.270;7.224;2022-12-07T05:28:59;34.47;;;20.85;;
21894;SDS011;11112;51.270;7.224;2022-12-07T05:31:27;30.33;;;20.42;;
21894;SDS011;11112;51.270;7.224;2022-12-07T05:33:55;29.52;;;21.10;;
21894;SDS011;11112;51.270;7.224;2022-12-07T05:36:23;30.50;;;21.02;;
21894;SDS011;11112;51.270;7.224;2022-12-07T05:38:53;30.52;;;20.75;;
21894;SDS011;11112;51.270;7.224;2022-12-07T05:41:22;32.65;;;22.50;;
21894;SDS011;11112;51.270;7.224;2022-12-07T05:44:08;39.63;;;24.15;;
21894;SDS011;11112;51.270;7.224;2022-12-07T05:46:37;37.20;;;24.73;;
21894;SDS011;11112;51.270;7.224;2022-12-07T05:49:05;33.72;;;23.38;;
21894;SDS011;11112;51.270;7.224;2022-12-07T05:51:33;34.78;;;24.60;;
21894;SDS011;11112;51.270;7.224;2022-12-07T05:54:00;39.97;;;25.15;;
21894;SDS011;11112;51.270;7.224;2022-12-07T05:56:27;37.38;;;25.90;;
21894;SDS011;11112;51.270;7.224;2022-12-07T05:58:55;40.38;;;27.30;;
21894;SDS011;11112;51.270;7.224;2022-12-07T06:01:41;41.22;;;27.75;;
21894;SDS011;11112;51.270;7.224;2022-12-07T06:04:08;39.90;;;27.67;;
21894;SDS011;11112;51.270;7.224;2022-12-07T06:06:35;42.08;;;27.67;;
21894;SDS011;11112;51.270;7.224;2022-12-07T06:09:03;43.42;;;28.15;;
21894;SDS011;11112;51.270;7.224;2022-12-07T06:11:30;42.53;;;28.17;;
21894;SDS011;11112;51.270;7.224;2022-12-07T06:14:15;40.88;;;26.75;;
21894;SDS011;11112;51.270;7.224;2022-12-07T06:16:44;41.80;;;28.15;;
21894;SDS011;11112;51.270;7.224;2022-12-07T06:19:11;40.95;;;27.80;;
21894;SDS011;11112;51.270;7.224;2022-12-07T06:21:39;43.28;;;28.10;;
21894;SDS011;11112;51.270;7.224;2022-12-07T06:24:07;44.38;;;30.13;;
21894;SDS011;11112;51.270;7.224;2022-12-07T06:26:36;47.42;;;30.85;;
21894;SDS011;11112;51.270;7.224;2022-12-07T06:29:04;44.58;;;30.00;;
21894;SDS011;11112;51.270;7.224;2022-12-07T06:31:32;48.25;;;30.42;;
21894;SDS011;11112;51.270;7.224;2022-12-07T06:34:02;46.10;;;29.67;;
21894;SDS011;11112;51.270;7.224;2022-12-07T06:36:32;46.33;;;30.10;;
21894;SDS011;11112;51.270;7.224;2022-12-07T06:39:00;48.80;;;32.00;;
21894;SDS011;11112;51.270;7.224;2022-12-07T06:41:27;48.58;;;30.27;;
21894;SDS011;11112;51.270;7.224;2022-12-07T06:43:55;53.28;;;32.90;;
21894;SDS011;11112;51.270;7.224;2022-12-07T06:46:22;47.08;;;29.63;;
21894;SDS011;11112;51.270;7.224;2022-12-07T06:48:50;40.70;;;28.23;;
21894;SDS011;11112;51.270;7.224;2022-12-07T06:51:26;41.25;;;27.73;;
21894;SDS011;11112;51.270;7.224;2022-12-07T06:53:55;38.50;;;25.27;;
21894;SDS011;11112;51.270;7.224;2022-12-07T06:56:22;39.03;;;25.27;;
21894;SDS011;11112;51.270;7.224;2022-12-07T06:58:50;40.90;;;25.95;;
21894;SDS011;11112;51.270;7.224;2022-12-07T07:01:17;36.90;;;25.35;;
21894;SDS011;11112;51.270;7.224;2022-12-07T07:03:45;36.45;;;24.63;;
21894;SDS011;11112;51.270;7.224;2022-12-07T07:06:15;35.88;;;24.48;;
21894;SDS011;11112;51.270;7.224;2022-12-07T07:08:44;36.30;;;24.35;;
21894;SDS011;11112;51.270;7.224;2022-12-07T07:11:13;38.85;;;24.17;;
21894;SDS011;11112;51.270;7.224;2022-12-07T07:13:40;36.38;;;24.48;;
21894;SDS011;11112;51.270;7.224;2022-12-07T07:16:07;36.28;;;24.30;;
21894;SDS011;11112;51.270;7.224;2022-12-07T07:18:36;35.65;;;23.48;;
21894;SDS011;11112;51.270;7.224;2022-12-07T07:21:04;37.40;;;25.38;;
21894;SDS011;11112;51.270;7.224;2022-12-07T07:23:31;37.67;;;25.95;;
21894;SDS011;11112;51.270;7.224;2022-12-07T07:26:01;39.03;;;25.60;;
21894;SDS011;11112;51.270;7.224;2022-12-07T07:28:28;42.70;;;26.80;;
21894;SDS011;11112;51.270;7.224;2022-12-07T07:30:55;40.67;;;26.70;;
21894;SDS011;11112;51.270;7.224;2022-12-07T07:33:22;46.83;;;28.08;;
21894;SDS011;11112;51.270;7.224;2022-12-07T07:35:49;40.17;;;25.50;;
21894;SDS011;11112;51.270;7.224;2022-12-07T07:38:17;33.97;;;23.60;;
21894;SDS011;11112;51.270;7.224;2022-12-07T07:40:44;39.85;;;23.05;;
21894;SDS011;11112;51.270;7.224;2022-12-07T07:43:13;32.22;;;22.40;;
21894;SDS011;11112;51.270;7.224;2022-12-07T07:45:41;35.97;;;23.33;;
21894;SDS011;11112;51.270;7.224;2022-12-07T07:48:08;38.28;;;24.33;;
21894;SDS011;11112;51.270;7.224;2022-12-07T07:50:35;37.42;;;23.92;;
21894;SDS011;11112;51.270;7.224;2022-12-07T07:53:02;41.50;;;25.42;;
21894;SDS011;11112;51.270;7.224;2022-12-07T07:55:29;35.83;;;23.67;;
21894;SDS011;11112;51.270;7.224;2022-12-07T07:57:58;38.75;;;23.98;;
21894;SDS011;11112;51.270;7.224;2022-12-07T08:00:27;35.10;;;23.85;;
21894;SDS011;11112;51.270;7.224;2022-12-07T08:02:54;37.00;;;23.30;;
21894;SDS011;11112;51.270;7.224;2022-12-07T08:05:21;38.30;;;23.27;;
21894;SDS011;11112;51.270;7.224;2022-12-07T08:07:48;37.25;;;22.83;;
21894;SDS011;11112;51.270;7.224;2022-12-07T08:10:15;33.13;;;22.23;;
21894;SDS011;11112;51.270;7.224;2022-12-07T08:12:43;39.85;;;22.75;;
21894;SDS011;11112;51.270;7.224;2022-12-07T08:15:30;36.33;;;22.17;;
21894;SDS011;11112;51.270;7.224;2022-12-07T08:17:59;34.53;;;22.50;;
21894;SDS011;11112;51.270;7.224;2022-12-07T08:20:29;33.65;;;23.50;;
21894;SDS011;11112;51.270;7.224;2022-12-07T08:22:57;34.78;;;22.92;;
21894;SDS011;11112;51.270;7.224;2022-12-07T08:25:24;37.58;;;22.83;;
21894;SDS011;11112;51.270;7.224;2022-12-07T08:27:52;37.35;;;23.48;;
21894;SDS011;11112;51.270;7.224;2022-12-07T08:30:21;37.63;;;23.70;;
21894;SDS011;11112;51.270;7.224;2022-12-07T08:32:50;36.55;;;23.55;;
21894;SDS011;11112;51.270;7.224;2022-12-07T08:35:17;35.15;;;22.45;;
21894;SDS011;11112;51.270;7.224;2022-12-07T08:37:45;36.83;;;22.25;;
21894;SDS011;11112;51.270;7.224;2022-12-07T08:40:12;35.33;;;21.23;;
21894;SDS011;11112;51.270;7.224;2022-12-07T08:42:41;31.50;;;20.98;;
21894;SDS011;11112;51.270;7.224;2022-12-07T08:45:10;33.63;;;20.45;;
21894;SDS011;11112;51.270;7.224;2022-12-07T08:47:40;37.50;;;21.35;;
21894;SDS011;11112;51.270;7.224;2022-12-07T08:50:13;34.33;;;21.40;;
21894;SDS011;11112;51.270;7.224;2022-12-07T08:52:41;38.30;;;22.27;;
21894;SDS011;11112;51.270;7.224;2022-12-07T08:55:09;38.95;;;23.05;;
21894;SDS011;11112;51.270;7.224;2022-12-07T08:57:38;36.88;;;23.02;;
21894;SDS011;11112;51.270;7.224;2022-12-07T09:00:08;36.30;;;22.95;;
21894;SDS011;11112;51.270;7.224;2022-12-07T09:02:36;40.30;;;23.55;;
21894;SDS011;11112;51.270;7.224;2022-12-07T09:05:04;40.45;;;24.42;;
21894;SDS011;11112;51.270;7.224;2022-12-07T09:07:33;39.88;;;23.85;;
21894;SDS011;11112;51.270;7.224;2022-12-07T09:10:02;37.25;;;23.02;;
21894;SDS011;11112;51.270;7.224;2022-12-07T09:12:31;35.25;;;23.30;;
21894;SDS011;11112;51.270;7.224;2022-12-07T09:14:58;35.83;;;22.38;;
21894;SDS011;11112;51.270;7.224;2022-12-07T09:17:26;38.92;;;22.75;;
21894;SDS011;11112;51.270;7.224;2022-12-07T09:19:53;36.80;;;23.38;;
21894;SDS011;11112;51.270;7.224;2022-12-07T09:22:23;36.17;;;22.70;;
21894;SDS011;11112;51.270;7.224;2022-12-07T09:24:52;33.80;;;22.23;;
21894;SDS011;11112;51.270;7.224;2022-12-07T09:27:19;35.05;;;22.67;;
21894;SDS011;11112;51.270;7.224;2022-12-07T09:29:47;33.40;;;21.85;;
21894;SDS011;11112;51.270;7.224;2022-12-07T09:32:14;31.90;;;20.75;;
21894;SDS011;11112;51.270;7.224;2022-12-07T09:34:43;29.98;;;20.30;;
21894;SDS011;11112;51.270;7.224;2022-12-07T09:37:10;35.55;;;22.17;;
21894;SDS011;11112;51.270;7.224;2022-12-07T09:39:37;33.05;;;21.15;;
21894;SDS011;11112;51.270;7.224;2022-12-07T09:42:09;31.45;;;21.10;;
21894;SDS011;11112;51.270;7.224;2022-12-07T09:44:54;32.47;;;19.90;;
21894;SDS011;11112;51.270;7.224;2022-12-07T09:47:23;31.85;;;20.85;;
21894;SDS011;11112;51.270;7.224;2022-12-07T09:49:50;34.75;;;20.85;;
21894;SDS011;11112;51.270;7.224;2022-12-07T09:52:19;34.42;;;20.05;;
21894;SDS011;11112;51.270;7.224;2022-12-07T09:54:52;34.42;;;20.70;;
21894;SDS011;11112;51.270;7.224;2022-12-07T09:57:23;31.48;;;20.77;;
21894;SDS011;11112;51.270;7.224;2022-12-07T09:59:56;32.58;;;20.33;;
21894;SDS011;11112;51.270;7.224;2022-12-07T10:02:33;30.70;;;19.23;;
21894;SDS011;11112;51.270;7.224;2022-12-07T10:05:04;33.13;;;19.83;;
21894;SDS011;11112;51.270;7.224;2022-12-07T10:07:34;26.17;;;18.52;;
21894;SDS011;11112;51.270;7.224;2022-12-07T10:10:03;32.55;;;18.95;;
21894;SDS011;11112;51.270;7.224;2022-12-07T10:12:47;28.77;;;18.42;;
21894;SDS011;11112;51.270;7.224;2022-12-07T10:15:21;30.70;;;18.70;;
21894;SDS011;11112;51.270;7.224;2022-12-07T10:17:49;31.73;;;18.52;;
21894;SDS011;11112;51.270;7.224;2022-12-07T10:20:21;28.98;;;18.55;;
21894;SDS011;11112;51.270;7.224;2022-12-07T10:22:55;28.00;;;19.30;;
21894;SDS011;11112;51.270;7.224;2022-12-07T10:25:27;26.38;;;18.90;;
21894;SDS011;11112;51.270;7.224;2022-12-07T10:28:01;32.10;;;18.88;;
21894;SDS011;11112;51.270;7.224;2022-12-07T10:30:46;30.30;;;18.98;;
21894;SDS011;11112;51.270;7.224;2022-12-07T10:33:27;30.67;;;18.50;;
21894;SDS011;11112;51.270;7.224;2022-12-07T10:35:58;26.95;;;17.80;;
21894;SDS011;11112;51.270;7.224;2022-12-07T10:38:27;28.55;;;17.83;;
21894;SDS011;11112;51.270;7.224;2022-12-07T10:41:03;30.85;;;18.88;;
21894;SDS011;11112;51.270;7.224;2022-12-07T10:43:34;27.25;;;18.88;;
21894;SDS011;11112;51.270;7.224;2022-12-07T10:52:50;34.03;;;21.13;;
21894;SDS011;11112;51.270;7.224;2022-12-07T10:56:11;30.92;;;20.58;;
21894;SDS011;11112;51.270;7.224;2022-12-07T10:59:07;36.55;;;22.50;;
21894;SDS011;11112;51.270;7.224;2022-12-07T11:01:55;32.63;;;21.73;;
21894;SDS011;11112;51.270;7.224;2022-12-07T11:04:33;34.90;;;23.23;;
21894;SDS011;11112;51.270;7.224;2022-12-07T11:07:10;35.38;;;21.42;;
21894;SDS011;11112;51.270;7.224;2022-12-07T11:09:54;37.10;;;22.33;;
21894;SDS011;11112;51.270;7.224;2022-12-07T11:12:36;32.60;;;20.85;;
21894;SDS011;11112;51.270;7.224;2022-12-07T11:15:22;31.35;;;21.00;;
21894;SDS011;11112;51.270;7.224;2022-12-07T11:18:00;33.83;;;20.73;;
21894;SDS011;11112;51.270;7.224;2022-12-07T11:20:37;31.73;;;20.52;;
21894;SDS011;11112;51.270;7.224;2022-12-07T11:23:13;32.97;;;20.45;;
21894;SDS011;11112;51.270;7.224;2022-12-07T11:25:53;31.88;;;20.02;;
21894;SDS011;11112;51.270;7.224;2022-12-07T11:28:35;35.28;;;21.50;;
21894;SDS011;11112;51.270;7.224;2022-12-07T11:31:20;31.65;;;21.20;;
21894;SDS011;11112;51.270;7.224;2022-12-07T11:33:57;36.67;;;21.95;;
21894;SDS011;11112;51.270;7.224;2022-12-07T11:36:36;34.17;;;21.35;;
21894;SDS011;11112;51.270;7.224;2022-12-07T11:39:09;30.77;;;21.60;;
21894;SDS011;11112;51.270;7.224;2022-12-07T11:41:47;32.00;;;20.58;;
21894;SDS011;11112;51.270;7.224;2022-12-07T11:44:22;29.90;;;20.20;;
21894;SDS011;11112;51.270;7.224;2022-12-07T11:47:02;29.17;;;18.98;;
21894;SDS011;11112;51.270;7.224;2022-12-07T11:49:37;31.27;;;18.52;;
21894;SDS011;11112;51.270;7.224;2022-12-07T11:52:13;26.90;;;18.08;;
21894;SDS011;11112;51.270;7.224;2022-12-07T11:54:50;31.85;;;16.80;;
21894;SDS011;11112;51.270;7.224;2022-12-07T11:57:20;26.63;;;14.95;;
21894;SDS011;11112;51.270;7.224;2022-12-07T11:59:56;23.42;;;15.20;;
21894;SDS011;11112;51.270;7.224;2022-12-07T12:02:36;24.55;;;15.00;;
21894;SDS011;11112;51.270;7.224;2022-12-07T12:05:12;23.85;;;13.38;;
21894;SDS011;11112;51.270;7.224;2022-12-07T12:07:44;21.10;;;12.68;;
21894;SDS011;11112;51.270;7.224;2022-12-07T12:10:18;21.23;;;12.40;;
21894;SDS011;11112;51.270;7.224;2022-12-07T12:12:57;20.95;;;12.27;;
21894;SDS011;11112;51.270;7.224;2022-12-07T12:16:01;20.63;;;12.80;;
21894;SDS011;11112;51.270;7.224;2022-12-07T12:21:44;20.52;;;12.35;;
21894;SDS011;11112;51.270;7.224;2022-12-07T12:24:18;23.98;;;12.48;;
21894;SDS011;11112;51.270;7.224;2022-12-07T12:26:50;25.98;;;13.38;;
21894;SDS011;11112;51.270;7.224;2022-12-07T12:29:23;22.42;;;12.85;;
21894;SDS011;11112;51.270;7.224;2022-12-07T12:32:12;23.60;;;13.48;;
21894;SDS011;11112;51.270;7.224;2022-12-07T12:35:02;22.77;;;13.30;;
21894;SDS011;11112;51.270;7.224;2022-12-07T12:37:53;23.17;;;13.68;;
21894;SDS011;11112;51.270;7.224;2022-12-07T12:46:36;22.13;;;11.23;;
21894;SDS011;11112;51.270;7.224;2022-12-07T12:49:32;22.20;;;11.25;;
21894;SDS011;11112;51.270;7.224;2022-12-07T13:02:14;20.00;;;11.30;;
21894;SDS011;11112;51.270;7.224;2022-12-07T13:04:49;20.42;;;11.77;;
21894;SDS011;11112;51.270;7.224;2022-12-07T13:10:36;18.55;;;10.55;;
21894;SDS011;11112;51.270;7.224;2022-12-07T13:22:37;18.15;;;8.20;;
21894;SDS011;11112;51.270;7.224;2022-12-07T13:25:28;17.55;;;8.77;;
21894;SDS011;11112;51.270;7.224;2022-12-07T13:28:01;13.82;;;7.32;;
21894;SDS011;11112;51.270;7.224;2022-12-07T13:30:39;13.38;;;7.20;;
21894;SDS011;11112;51.270;7.224;2022-12-07T13:33:15;15.35;;;7.78;;
21894;SDS011;11112;51.270;7.224;2022-12-07T13:35:45;19.50;;;10.57;;
21894;SDS011;11112;51.270;7.224;2022-12-07T13:38:16;18.83;;;7.90;;
21894;SDS011;11112;51.270;7.224;2022-12-07T13:41:05;15.00;;;7.45;;
21894;SDS011;11112;51.270;7.224;2022-12-07T13:43:44;17.95;;;8.13;;
21894;SDS011;11112;51.270;7.224;2022-12-07T13:46:24;17.30;;;8.15;;
21894;SDS011;11112;51.270;7.224;2022-12-07T13:49:00;19.70;;;7.65;;
21894;SDS011;11112;51.270;7.224;2022-12-07T13:51:28;15.00;;;5.60;;
21894;SDS011;11112;51.270;7.224;2022-12-07T13:54:08;11.27;;;5.07;;
21894;SDS011;11112;51.270;7.224;2022-12-07T13:56:38;12.23;;;4.80;;
21894;SDS011;11112;51.270;7.224;2022-12-07T13:59:08;12.07;;;5.50;;
21894;SDS011;11112;51.270;7.224;2022-12-07T14:01:42;9.35;;;4.20;;
21894;SDS011;11112;51.270;7.224;2022-12-07T14:09:54;10.43;;;4.50;;
21894;SDS011;11112;51.270;7.224;2022-12-07T14:12:24;14.05;;;5.07;;
21894;SDS011;11112;51.270;7.224;2022-12-07T14:14:53;11.90;;;4.30;;
21894;SDS011;11112;51.270;7.224;2022-12-07T14:17:23;11.43;;;3.92;;
21894;SDS011;11112;51.270;7.224;2022-12-07T14:19:54;12.82;;;4.13;;
21894;SDS011;11112;51.270;7.224;2022-12-07T14:22:26;12.13;;;3.83;;
21894;SDS011;11112;51.270;7.224;2022-12-07T14:24:58;10.80;;;4.07;;
21894;SDS011;11112;51.270;7.224;2022-12-07T14:27:35;9.65;;;4.10;;
21894;SDS011;11112;51.270;7.224;2022-12-07T14:30:03;12.95;;;4.70;;
21894;SDS011;11112;51.270;7.224;2022-12-07T14:32:34;10.30;;;4.70;;
21894;SDS011;11112;51.270;7.224;2022-12-07T14:35:10;19.08;;;7.90;;
21894;SDS011;11112;51.270;7.224;2022-12-07T14:37:40;21.58;;;10.43;;
21894;SDS011;11112;51.270;7.224;2022-12-07T14:40:12;12.25;;;5.60;;
21894;SDS011;11112;51.270;7.224;2022-12-07T14:42:42;13.80;;;5.57;;
21894;SDS011;11112;51.270;7.224;2022-12-07T14:45:15;14.27;;;6.22;;
21894;SDS011;11112;51.270;7.224;2022-12-07T14:47:45;13.45;;;4.68;;
21894;SDS011;11112;51.270;7.224;2022-12-07T14:50:16;14.60;;;4.55;;
21894;SDS011;11112;51.270;7.224;2022-12-07T14:52:46;11.70;;;5.07;;
21894;SDS011;11112;51.270;7.224;2022-12-07T14:55:20;11.23;;;5.10;;
21894;SDS011;11112;51.270;7.224;2022-12-07T14:57:52;10.68;;;5.97;;
21894;SDS011;11112;51.270;7.224;2022-12-07T15:00:20;19.77;;;8.50;;
21894;SDS011;11112;51.270;7.224;2022-12-07T15:02:50;17.23;;;8.80;;
21894;SDS011;11112;51.270;7.224;2022-12-07T15:05:20;14.32;;;7.57;;
21894;SDS011;11112;51.270;7.224;2022-12-07T15:07:48;15.52;;;6.85;;
21894;SDS011;11112;51.270;7.224;2022-12-07T15:10:18;12.65;;;5.90;;
21894;SDS011;11112;51.270;7.224;2022-12-07T15:12:48;15.05;;;6.82;;
21894;SDS011;11112;51.270;7.224;2022-12-07T15:15:16;15.25;;;6.68;;
21894;SDS011;11112;51.270;7.224;2022-12-07T15:17:44;13.00;;;5.72;;
21894;SDS011;11112;51.270;7.224;2022-12-07T15:20:12;15.65;;;6.72;;
21894;SDS011;11112;51.270;7.224;2022-12-07T15:22:44;13.77;;;5.53;;
21894;SDS011;11112;51.270;7.224;2022-12-07T15:25:13;14.02;;;5.30;;
21894;SDS011;11112;51.270;7.224;2022-12-07T15:27:41;32.72;;;16.50;;
21894;SDS011;11112;51.270;7.224;2022-12-07T15:30:09;45.38;;;22.42;;
21894;SDS011;11112;51.270;7.224;2022-12-07T15:32:39;35.17;;;17.52;;
21894;SDS011;11112;51.270;7.224;2022-12-07T15:35:07;25.27;;;11.82;;
21894;SDS011;11112;51.270;7.224;2022-12-07T15:37:35;29.95;;;15.40;;
21894;SDS011;11112;51.270;7.224;2022-12-07T15:40:11;24.23;;;10.90;;